首页
METAR-TAF:

METAR-TAF

机场 :

罗纳德·里根华盛顿国家机场

华盛顿, 弗吉尼亚州, 美国

纬度: 38-50-54N, 经度: 077-02-03W, 海拔: 4米

当前天气观测

该预报发布于29分钟前的19:52 UTC
风速9节,风向西转西北,有时为18节阵风,在西转西南之间变化
温度 11°C
湿度 28%
气压 1027 hPa
能見度: 16.1公里
多云层高于25000英尺

METAR: KDCA 191952Z 30009G18KT 240V350 10SM BKN250 11/M07 A3033 RMK AO2 SLP269 T01111072

时间: 15:21 (20:21 UTC)

预报

该预报发布于2小时和41分钟前的17:40 UTC
预报有效从19日的 18点(UTC)到 20日的 24点(UTC)
风速11节,风向西北,有时为17节阵风
能見度: 10公里
散云层高于25000英尺
从 19日的 2100点(UTC)
风速9节,风向西北
能見度: 10公里
散云层高于20000英尺
从 20日的 0400点(UTC)
风速5节,风向北转西北
能見度: 10公里
天空无云
从 20日的 0900点(UTC)
风速节,风向
能見度: 10公里
多云层高于20000英尺
从 20日的 1600点(UTC)
风速4节,风向
能見度: 10公里
阴天层高于15000英尺
从 20日的 1900点(UTC)
风速节,风向
能見度: 10公里
阴天层高于7000英尺
从 20日的 2300点(UTC)
风速3节,风向多变
能見度: 10公里
多云层高于9000英尺

TAF: KDCA 191740Z 1918/2024 32011G17KT P6SM SCT250 FM192100 32009KT P6SM SCT200 FM200400 34005KT P6SM SKC FM200900 00000KT P6SM BKN200 FM201600 01004KT P6SM OVC150 FM201900 00000KT P6SM OVC070 FM202300 VRB03KT P6SM BKN090

超过4000个机场的气象观测和天气预报(METAR&TAF报告)。

可查询的气象台以黄色和红色小点在地图上表示。

将鼠标移到小点上方,可查看气象台名称。

然后点击查看天气观测和预报。

如需切换地图:点击带黑十字的绿色按钮放大地图;点击带横线的绿色按钮缩小地图;或者点击绿色箭头查看邻近地区的地图。


METAR-TAF: